createdAt,value
2018-12-11T00:01:54.234Z,33.63
2018-12-11T00:04:23.308Z,33.23
2018-12-11T00:06:52.347Z,31.80
2018-12-11T00:09:21.422Z,31.87
2018-12-11T00:11:50.457Z,30.07
2018-12-11T00:14:19.448Z,28.80
2018-12-11T00:16:48.460Z,27.90
2018-12-11T00:19:17.368Z,28.50
2018-12-11T00:21:46.492Z,27.87
2018-12-11T00:24:15.483Z,26.73
2018-12-11T00:26:44.591Z,25.43
2018-12-11T00:29:14.209Z,25.07
2018-12-11T00:31:43.345Z,23.93
2018-12-11T00:34:12.344Z,22.80
2018-12-11T00:36:41.250Z,23.67
2018-12-11T00:39:10.167Z,22.20
2018-12-11T00:41:39.189Z,21.30
2018-12-11T00:44:08.294Z,21.83
2018-12-11T00:46:37.303Z,20.47
2018-12-11T00:49:06.344Z,20.17
2018-12-11T00:51:35.219Z,19.77
2018-12-11T00:54:04.334Z,18.87
2018-12-11T00:56:33.366Z,17.80
2018-12-11T00:59:02.452Z,17.13
2018-12-11T01:01:31.466Z,17.80
2018-12-11T01:04:00.382Z,16.70
2018-12-11T01:06:29.381Z,17.63
2018-12-11T01:08:59.012Z,15.17
2018-12-11T01:11:29.084Z,15.47
2018-12-11T01:13:58.609Z,15.53
2018-12-11T01:16:27.699Z,14.53
2018-12-11T01:18:57.404Z,13.97
2018-12-11T01:21:26.516Z,13.40
2018-12-11T01:23:55.519Z,13.17
2018-12-11T01:26:24.436Z,13.20
2018-12-11T01:28:53.552Z,12.50
2018-12-11T01:31:22.672Z,13.03
2018-12-11T01:33:51.791Z,12.17
2018-12-11T01:36:20.783Z,11.63
2018-12-11T01:38:49.839Z,11.57
2018-12-11T01:41:18.912Z,11.07
2018-12-11T01:43:47.953Z,11.23
2018-12-11T01:46:17.045Z,10.60
2018-12-11T01:48:46.043Z,10.07
2018-12-11T01:51:14.950Z,10.00
2018-12-11T01:53:43.978Z,10.30
2018-12-11T01:56:13.133Z,9.93
2018-12-11T01:58:42.187Z,8.73
2018-12-11T02:01:11.200Z,8.30
2018-12-11T02:03:41.121Z,8.50
2018-12-11T02:06:10.239Z,9.20
2018-12-11T02:08:39.363Z,8.30
2018-12-11T02:11:08.347Z,8.17
2018-12-11T02:13:37.251Z,7.40
2018-12-11T02:16:06.118Z,7.43
2018-12-11T02:18:34.984Z,8.10
2018-12-11T02:21:04.031Z,7.07
2018-12-11T02:23:33.125Z,7.33
2018-12-11T02:26:02.116Z,6.57
2018-12-11T02:28:31.131Z,6.40
2018-12-11T02:31:00.145Z,6.43
2018-12-11T02:33:29.166Z,7.17
2018-12-11T02:35:58.244Z,7.37
2018-12-11T02:38:27.371Z,7.10
2018-12-11T02:40:56.398Z,6.77
2018-12-11T02:43:25.408Z,6.40
2018-12-11T02:45:54.310Z,7.10
2018-12-11T02:48:23.431Z,7.60
2018-12-11T02:50:52.545Z,7.37
2018-12-11T02:53:21.651Z,7.20
2018-12-11T02:55:50.764Z,8.00
2018-12-11T02:58:19.876Z,7.63
2018-12-11T03:00:48.986Z,7.90
2018-12-11T03:03:18.281Z,7.60
2018-12-11T03:05:47.268Z,8.43
2018-12-11T03:08:16.224Z,8.50
2018-12-11T03:10:45.779Z,8.67
2018-12-11T03:13:14.880Z,9.30
2018-12-11T03:15:43.880Z,10.47
2018-12-11T03:18:12.989Z,11.03
2018-12-11T03:20:41.988Z,12.60
2018-12-11T03:23:11.005Z,14.63
2018-12-11T03:25:40.073Z,14.50
2018-12-11T03:28:09.138Z,15.37
2018-12-11T03:30:38.143Z,15.50
2018-12-11T03:33:06.952Z,16.10
2018-12-11T03:35:35.955Z,17.60
2018-12-11T03:38:05.065Z,17.90
2018-12-11T03:40:34.189Z,19.30
2018-12-11T03:43:03.217Z,19.60
2018-12-11T03:45:32.191Z,20.43
2018-12-11T03:48:02.108Z,20.57
2018-12-11T03:50:31.245Z,19.20
2018-12-11T03:53:00.352Z,19.27
2018-12-11T03:55:29.364Z,18.90
2018-12-11T03:57:58.376Z,19.00
2018-12-11T04:00:27.501Z,17.57
2018-12-11T04:02:56.616Z,17.43
2018-12-11T04:05:25.639Z,18.23
2018-12-11T04:07:54.724Z,16.60
2018-12-11T04:10:23.703Z,16.53
2018-12-11T04:12:52.663Z,18.20
2018-12-11T04:15:21.810Z,16.07
2018-12-11T04:17:50.752Z,16.27
2018-12-11T04:20:19.807Z,16.37
2018-12-11T04:22:48.809Z,15.60
2018-12-11T04:25:17.906Z,16.57
2018-12-11T04:27:46.922Z,14.70
2018-12-11T04:30:15.841Z,20.60
2018-12-11T04:32:44.938Z,17.13
2018-12-11T04:35:14.184Z,19.77
2018-12-11T04:37:43.104Z,17.57
2018-12-11T04:40:12.075Z,18.97
2018-12-11T04:42:41.181Z,18.07
2018-12-11T04:45:10.841Z,18.50
2018-12-11T04:47:39.850Z,19.00
2018-12-11T04:50:08.830Z,18.63
2018-12-11T04:52:37.850Z,20.80
2018-12-11T04:55:06.940Z,20.00
2018-12-11T04:57:35.913Z,24.80
2018-12-11T05:00:05.341Z,25.23
2018-12-11T05:02:34.058Z,27.03
2018-12-11T05:05:02.879Z,45.57
2018-12-11T05:07:31.854Z,63.00
2018-12-11T05:10:00.803Z,57.33
2018-12-11T05:12:29.920Z,54.93
2018-12-11T05:14:59.048Z,52.70
2018-12-11T05:17:28.058Z,51.17
2018-12-11T05:19:57.161Z,48.13
2018-12-11T05:22:27.042Z,47.17
2018-12-11T05:24:55.972Z,45.03
2018-12-11T05:27:24.974Z,44.87
2018-12-11T05:29:53.927Z,43.10
2018-12-11T05:32:22.928Z,40.37
2018-12-11T05:34:52.608Z,39.23
2018-12-11T05:37:22.016Z,38.20
2018-12-11T05:39:50.723Z,38.17
2018-12-11T05:42:19.720Z,37.93
2018-12-11T05:44:48.654Z,35.80
2018-12-11T05:47:17.613Z,38.57
2018-12-11T05:49:46.634Z,36.50
2018-12-11T05:52:15.511Z,36.73
2018-12-11T05:54:44.445Z,35.77
2018-12-11T05:57:13.435Z,34.13
2018-12-11T05:59:42.356Z,35.00
2018-12-11T06:02:11.359Z,33.53
2018-12-11T06:04:40.483Z,33.37
2018-12-11T06:07:09.600Z,32.53
2018-12-11T06:09:38.702Z,32.93
2018-12-11T06:12:07.687Z,31.13
2018-12-11T06:14:36.728Z,30.57
2018-12-11T06:17:05.724Z,30.83
2018-12-11T06:19:34.755Z,29.40
2018-12-11T06:22:03.667Z,30.27
2018-12-11T06:24:32.769Z,29.63
2018-12-11T06:27:03.223Z,30.37
2018-12-11T06:29:32.235Z,30.40
2018-12-11T06:32:01.380Z,29.47
2018-12-11T06:34:30.492Z,31.17
2018-12-11T06:36:59.455Z,30.63
2018-12-11T06:39:28.511Z,28.53
2018-12-11T06:41:57.564Z,30.07
2018-12-11T06:44:26.489Z,30.40
2018-12-11T06:46:55.613Z,33.17
2018-12-11T06:49:24.600Z,35.57
2018-12-11T06:51:53.623Z,36.53
2018-12-11T06:54:22.763Z,39.33
2018-12-11T06:56:51.853Z,42.80
2018-12-11T06:59:20.960Z,39.77
2018-12-11T07:01:49.983Z,40.60
2018-12-11T07:04:19.112Z,42.17
2018-12-11T07:06:48.101Z,39.93
2018-12-11T07:09:17.770Z,38.57
2018-12-11T07:11:46.838Z,36.10
2018-12-11T07:14:15.941Z,36.63
2018-12-11T07:16:45.085Z,36.80
2018-12-11T07:19:14.006Z,34.67
2018-12-11T07:21:43.075Z,33.60
2018-12-11T07:24:12.690Z,35.10
2018-12-11T07:26:41.706Z,32.97
2018-12-11T07:29:10.736Z,32.03
2018-12-11T07:31:39.624Z,31.93
2018-12-11T07:34:08.535Z,29.20
2018-12-11T07:36:39.009Z,28.80
2018-12-11T07:39:08.902Z,29.67
2018-12-11T07:41:38.901Z,28.97
2018-12-11T07:44:08.141Z,26.23
2018-12-11T07:46:37.592Z,26.63
2018-12-11T07:49:06.700Z,25.00
2018-12-11T07:51:35.812Z,24.27
2018-12-11T07:54:04.859Z,23.93
2018-12-11T07:56:34.200Z,24.37
2018-12-11T07:59:03.276Z,23.30
2018-12-11T08:01:33.201Z,23.00
2018-12-11T08:04:02.412Z,21.57
2018-12-11T08:06:32.001Z,21.20
2018-12-11T08:09:01.069Z,21.13
2018-12-11T08:11:30.306Z,20.20
2018-12-11T08:13:59.259Z,19.00
2018-12-11T08:16:28.516Z,19.40
2018-12-11T08:18:58.273Z,17.03
2018-12-11T08:21:27.771Z,18.37
2018-12-11T08:23:56.867Z,16.77
2018-12-11T08:26:26.840Z,16.77
2018-12-11T08:28:55.881Z,15.47
2018-12-11T08:31:25.242Z,15.50
2018-12-11T08:33:54.748Z,15.40
2018-12-11T08:36:25.013Z,14.60
2018-12-11T08:38:54.773Z,13.70
2018-12-11T08:41:23.665Z,14.30
2018-12-11T08:43:52.747Z,13.70
2018-12-11T08:46:22.236Z,13.30
2018-12-11T08:48:51.763Z,14.33
2018-12-11T08:51:21.950Z,16.67
2018-12-11T08:53:51.656Z,19.43
2018-12-11T08:56:20.930Z,22.90
2018-12-11T08:58:49.993Z,21.77
2018-12-11T09:01:19.484Z,21.03
2018-12-11T09:03:49.163Z,19.43
2018-12-11T09:06:19.293Z,17.87
2018-12-11T09:08:49.115Z,16.97
2018-12-11T09:11:18.478Z,16.60
2018-12-11T09:13:47.917Z,15.90
2018-12-11T09:16:16.930Z,16.27
2018-12-11T09:18:45.876Z,15.63
2018-12-11T09:21:15.608Z,16.07
2018-12-11T09:23:44.694Z,15.87
2018-12-11T09:26:13.595Z,14.37
2018-12-11T09:28:43.280Z,16.20
2018-12-11T09:31:12.416Z,14.43
2018-12-11T09:33:44.190Z,14.00
2018-12-11T09:36:13.190Z,12.67
2018-12-11T09:38:42.788Z,12.47
2018-12-11T09:41:11.924Z,12.97
2018-12-11T09:43:41.659Z,12.90
2018-12-11T09:46:10.905Z,13.00
2018-12-11T09:48:40.187Z,12.63
2018-12-11T09:51:09.406Z,13.57
2018-12-11T09:53:39.789Z,13.20
2018-12-11T09:56:08.890Z,12.97
2018-12-11T09:58:37.937Z,11.37
2018-12-11T10:01:06.980Z,12.27
2018-12-11T10:03:36.127Z,11.67
2018-12-11T10:06:05.311Z,12.10
2018-12-11T10:08:34.270Z,12.13
2018-12-11T10:11:03.272Z,11.90
2018-12-11T10:13:32.235Z,11.40
2018-12-11T10:16:01.309Z,11.20
2018-12-11T10:18:31.684Z,12.83
2018-12-11T10:21:00.694Z,11.77
2018-12-11T10:23:31.952Z,11.53
2018-12-11T10:26:01.084Z,11.07
2018-12-11T10:28:30.186Z,12.27
2018-12-11T10:30:59.321Z,11.23
2018-12-11T10:33:28.964Z,11.03
2018-12-11T10:35:57.929Z,11.80
2018-12-11T10:38:26.980Z,11.20
2018-12-11T10:40:56.160Z,10.83
2018-12-11T10:43:25.285Z,10.33
2018-12-11T10:45:54.397Z,10.90
2018-12-11T10:48:23.679Z,11.13
2018-12-11T10:50:52.812Z,10.00
2018-12-11T10:53:22.021Z,10.27
2018-12-11T10:55:50.910Z,10.47
2018-12-11T10:58:19.861Z,10.03
2018-12-11T11:00:54.061Z,10.40
2018-12-11T11:03:23.114Z,9.60
2018-12-11T11:05:52.251Z,10.47
2018-12-11T11:08:21.709Z,9.50
2018-12-11T11:10:50.733Z,10.13
2018-12-11T11:13:19.875Z,9.50
2018-12-11T11:15:49.193Z,9.60
2018-12-11T11:18:18.887Z,9.07
2018-12-11T11:20:47.998Z,9.10
2018-12-11T11:23:17.034Z,8.97
2018-12-11T11:25:46.695Z,9.00
2018-12-11T11:28:15.672Z,9.60
2018-12-11T11:30:45.277Z,9.57
2018-12-11T11:33:14.295Z,9.20
2018-12-11T11:35:43.916Z,9.30
2018-12-11T11:38:12.930Z,9.20
2018-12-11T11:40:41.952Z,8.60
2018-12-11T11:43:11.564Z,8.90
2018-12-11T11:45:41.098Z,9.10
2018-12-11T11:48:10.171Z,9.27
2018-12-11T11:50:39.673Z,8.87
2018-12-11T11:53:10.106Z,8.63
2018-12-11T11:55:40.402Z,9.00
2018-12-11T11:58:10.108Z,8.40
2018-12-11T12:00:40.173Z,9.23
2018-12-11T12:03:09.378Z,9.80
2018-12-11T12:05:39.005Z,9.13
2018-12-11T12:08:08.102Z,8.97
2018-12-11T12:10:38.521Z,9.50
2018-12-11T12:13:08.429Z,8.40
2018-12-11T12:15:38.131Z,8.70
2018-12-11T12:18:10.060Z,8.67
2018-12-11T12:20:39.267Z,8.50
2018-12-11T12:23:08.189Z,8.67
2018-12-11T12:25:38.080Z,8.50
2018-12-11T12:28:07.009Z,8.53
2018-12-11T12:30:36.524Z,7.87
2018-12-11T12:33:09.035Z,8.30
2018-12-11T12:35:37.964Z,8.17
2018-12-11T12:38:09.739Z,8.30
2018-12-11T12:40:39.952Z,7.90
2018-12-11T12:43:09.423Z,7.73
2018-12-11T12:45:39.485Z,7.90
2018-12-11T12:48:09.801Z,8.23
2018-12-11T12:50:38.902Z,7.50
2018-12-11T12:53:08.811Z,8.30
2018-12-11T12:55:38.725Z,8.73
2018-12-11T12:58:08.484Z,7.40
2018-12-11T13:00:38.480Z,8.17
2018-12-11T13:03:09.106Z,7.70
2018-12-11T13:05:38.234Z,8.47
2018-12-11T13:08:08.070Z,8.30
2018-12-11T13:10:37.161Z,8.07
2018-12-11T13:13:07.274Z,8.67
2018-12-11T13:15:36.369Z,8.10
2018-12-11T13:18:05.365Z,7.70
2018-12-11T13:20:34.376Z,7.50
2018-12-11T13:23:03.936Z,7.50
2018-12-11T13:25:32.918Z,7.90
2018-12-11T13:28:02.541Z,8.90
2018-12-11T13:30:31.644Z,8.73
2018-12-11T13:33:00.660Z,7.00
2018-12-11T13:35:30.592Z,6.90
2018-12-11T13:37:59.751Z,8.10
2018-12-11T13:40:29.197Z,8.20
2018-12-11T13:42:58.511Z,6.70
2018-12-11T13:45:27.444Z,7.30
2018-12-11T13:47:56.587Z,7.80
2018-12-11T13:50:25.704Z,8.20
2018-12-11T13:52:54.854Z,7.30
2018-12-11T13:55:23.942Z,7.20
2018-12-11T13:57:52.914Z,6.63
2018-12-11T14:00:21.930Z,6.80
2018-12-11T14:02:51.064Z,6.73
2018-12-11T14:05:20.195Z,6.63
2018-12-11T14:07:49.282Z,7.17
2018-12-11T14:10:18.375Z,7.30
2018-12-11T14:12:47.407Z,7.40
2018-12-11T14:15:16.640Z,6.97
2018-12-11T14:17:45.755Z,6.70
2018-12-11T14:20:14.861Z,7.33
2018-12-11T14:22:43.968Z,6.70
2018-12-11T14:25:13.105Z,6.70
2018-12-11T14:27:42.283Z,6.80
2018-12-11T14:30:11.584Z,7.00
2018-12-11T14:32:40.813Z,6.27
2018-12-11T14:35:09.835Z,6.70
2018-12-11T14:37:38.720Z,6.37
2018-12-11T14:40:08.022Z,6.40
2018-12-11T14:42:37.654Z,6.87
2018-12-11T14:45:07.457Z,5.67
2018-12-11T14:47:36.556Z,6.90
2018-12-11T14:50:06.838Z,6.13
2018-12-11T14:52:35.819Z,6.37
2018-12-11T14:55:05.353Z,6.20
2018-12-11T14:57:34.327Z,7.10
2018-12-11T15:00:03.433Z,6.00
2018-12-11T15:02:32.549Z,6.87
2018-12-11T15:05:01.887Z,6.57
2018-12-11T15:07:31.279Z,5.80
2018-12-11T15:10:00.280Z,6.50
2018-12-11T15:12:29.367Z,6.60
2018-12-11T15:14:58.323Z,6.33
2018-12-11T15:17:27.284Z,6.40
2018-12-11T15:19:56.455Z,6.10
2018-12-11T15:22:25.405Z,7.03
2018-12-11T15:24:55.011Z,6.73
2018-12-11T15:27:24.087Z,5.97
2018-12-11T15:29:53.062Z,6.17
2018-12-11T15:32:21.978Z,5.70
2018-12-11T15:34:51.088Z,5.50
2018-12-11T15:37:20.665Z,6.53
2018-12-11T15:39:49.829Z,5.93
2018-12-11T15:42:18.823Z,5.67
2018-12-11T15:44:48.373Z,5.80
2018-12-11T15:47:17.415Z,5.50
2018-12-11T15:49:46.427Z,5.10
2018-12-11T15:52:15.727Z,4.90
2018-12-11T15:54:44.812Z,4.90
2018-12-11T15:57:13.850Z,6.03
2018-12-11T15:59:42.920Z,5.37
2018-12-11T16:02:12.043Z,5.20
2018-12-11T16:04:41.196Z,5.00
2018-12-11T16:07:10.264Z,5.20
2018-12-11T16:09:39.547Z,5.30
2018-12-11T16:12:08.396Z,5.30
2018-12-11T16:14:37.406Z,5.27
2018-12-11T16:17:07.400Z,5.23
2018-12-11T16:19:36.449Z,41.17
2018-12-11T16:22:06.545Z,35.93
2018-12-11T16:24:35.522Z,34.33
2018-12-11T16:27:04.483Z,40.60
2018-12-11T16:29:35.616Z,39.70
2018-12-11T16:32:04.680Z,42.17
2018-12-11T16:34:33.586Z,39.13
2018-12-11T16:37:02.742Z,38.00
2018-12-11T16:39:31.711Z,38.33
2018-12-11T16:42:01.751Z,39.47
2018-12-11T16:44:30.859Z,36.00
2018-12-11T16:46:59.865Z,28.50
2018-12-11T16:49:28.877Z,24.67
2018-12-11T16:51:58.001Z,22.80
2018-12-11T16:54:27.093Z,23.17
2018-12-11T16:56:55.944Z,18.70
2018-12-11T16:59:24.968Z,18.67
2018-12-11T17:01:54.012Z,16.40
2018-12-11T17:04:23.043Z,16.57
2018-12-11T17:06:52.576Z,14.73
2018-12-11T17:09:21.590Z,15.17
2018-12-11T17:11:50.567Z,12.27
2018-12-11T17:14:19.733Z,13.97
2018-12-11T17:16:49.329Z,12.70
2018-12-11T17:19:18.264Z,12.93
2018-12-11T17:21:47.755Z,12.60
2018-12-11T17:24:16.747Z,12.00
2018-12-11T17:26:45.788Z,10.63
2018-12-11T17:29:14.794Z,10.40
2018-12-11T17:31:44.920Z,10.20
2018-12-11T17:34:13.952Z,10.30
2018-12-11T17:36:43.212Z,8.30
2018-12-11T17:39:12.265Z,9.40
2018-12-11T17:41:41.466Z,8.37
2018-12-11T17:44:10.449Z,7.33
2018-12-11T17:46:39.390Z,9.00
2018-12-11T17:49:09.151Z,8.50
2018-12-11T17:51:38.235Z,7.93
2018-12-11T17:54:07.178Z,6.93
2018-12-11T17:56:36.519Z,7.13
2018-12-11T17:59:05.572Z,6.83
2018-12-11T18:01:35.780Z,6.33
2018-12-11T18:04:04.964Z,6.13
2018-12-11T18:06:33.858Z,5.70
2018-12-11T18:09:02.746Z,5.67
2018-12-11T18:11:31.996Z,5.50
2018-12-11T18:14:01.535Z,6.00
2018-12-11T18:16:30.532Z,5.07
2018-12-11T18:18:59.514Z,5.83
2018-12-11T18:21:28.877Z,13.90
2018-12-11T18:23:57.936Z,613.97
2018-12-11T18:26:27.058Z,476.30
2018-12-11T18:28:56.101Z,367.33
2018-12-11T18:31:25.493Z,327.33
2018-12-11T18:33:54.514Z,297.43
2018-12-11T18:36:24.252Z,254.37
2018-12-11T18:38:53.640Z,265.10
2018-12-11T18:41:22.602Z,305.30
2018-12-11T18:43:51.777Z,253.53
2018-12-11T18:46:20.919Z,258.23
2018-12-11T18:48:49.856Z,231.77
2018-12-11T18:51:19.007Z,218.07
2018-12-11T18:53:48.022Z,199.57
2018-12-11T18:56:17.056Z,212.03
2018-12-11T18:58:46.309Z,176.40
2018-12-11T19:01:15.380Z,195.77
2018-12-11T19:03:49.261Z,179.50
2018-12-11T19:06:15.523Z,178.40
2018-12-11T19:08:44.509Z,169.93
2018-12-11T19:11:13.542Z,177.03
2018-12-11T19:13:42.511Z,156.10
2018-12-11T19:16:13.083Z,162.67
2018-12-11T19:18:42.209Z,134.00
2018-12-11T19:21:12.215Z,149.90
2018-12-11T19:23:50.096Z,141.20
2018-12-11T19:26:20.128Z,148.00
2018-12-11T19:28:49.323Z,146.83
2018-12-11T19:31:19.018Z,135.67
2018-12-11T19:33:48.027Z,135.37
2018-12-11T19:36:17.149Z,125.87
2018-12-11T19:38:46.163Z,125.93
2018-12-11T19:41:15.170Z,114.93
2018-12-11T19:43:44.396Z,122.77
2018-12-11T19:46:13.511Z,113.03
2018-12-11T19:48:42.654Z,106.80
2018-12-11T19:51:11.835Z,109.80
2018-12-11T19:53:40.732Z,104.73
2018-12-11T19:56:09.783Z,97.23
2018-12-11T19:58:39.003Z,93.20
2018-12-11T20:01:08.636Z,103.00
2018-12-11T20:03:38.435Z,90.67
2018-12-11T20:06:07.423Z,91.13
2018-12-11T20:08:36.523Z,90.90
2018-12-11T20:11:05.444Z,85.67
2018-12-11T20:13:34.460Z,79.77
2018-12-11T20:16:03.468Z,78.83
2018-12-11T20:18:32.377Z,85.30
2018-12-11T20:21:01.478Z,84.17
2018-12-11T20:23:30.477Z,72.63
2018-12-11T20:25:59.483Z,78.23
2018-12-11T20:28:28.641Z,74.20
2018-12-11T20:30:58.512Z,71.87
2018-12-11T20:33:27.573Z,74.20
2018-12-11T20:35:56.564Z,67.73
2018-12-11T20:38:25.687Z,70.33
2018-12-11T20:40:54.626Z,75.23
2018-12-11T20:43:24.564Z,64.33
2018-12-11T20:45:53.704Z,66.80
2018-12-11T20:48:23.513Z,65.83
2018-12-11T20:50:52.576Z,53.20
2018-12-11T20:53:21.594Z,60.70
2018-12-11T20:55:50.600Z,62.73
2018-12-11T20:58:19.812Z,53.83
2018-12-11T21:00:48.916Z,58.73
2018-12-11T21:03:17.936Z,56.73
2018-12-11T21:05:46.907Z,60.27
2018-12-11T21:08:15.846Z,64.57
2018-12-11T21:10:44.859Z,65.07
2018-12-11T21:13:14.077Z,65.33
2018-12-11T21:15:43.120Z,61.20
2018-12-11T21:18:12.112Z,62.83
2018-12-11T21:20:41.202Z,62.30
2018-12-11T21:23:10.313Z,60.77
2018-12-11T21:25:39.338Z,63.17
2018-12-11T21:28:08.462Z,65.07
2018-12-11T21:30:37.409Z,66.20
2018-12-11T21:33:06.488Z,66.13
2018-12-11T21:35:35.472Z,63.13
2018-12-11T21:38:04.974Z,61.87
2018-12-11T21:40:34.025Z,63.73
2018-12-11T21:43:03.133Z,66.43
2018-12-11T21:45:32.140Z,70.27
2018-12-11T21:48:01.282Z,75.70
2018-12-11T21:50:30.245Z,76.93
2018-12-11T21:53:00.189Z,74.43
2018-12-11T21:55:29.145Z,73.03
2018-12-11T21:57:58.241Z,73.77
2018-12-11T22:00:27.320Z,69.70
2018-12-11T22:02:56.323Z,68.17
2018-12-11T22:05:25.381Z,66.93
2018-12-11T22:07:54.368Z,68.50
2018-12-11T22:10:23.482Z,66.67
2018-12-11T22:12:52.493Z,64.70
2018-12-11T22:15:21.992Z,63.90
2018-12-11T22:17:51.024Z,63.43
2018-12-11T22:20:19.975Z,62.90
2018-12-11T22:22:48.955Z,61.73
2018-12-11T22:25:18.035Z,58.23
2018-12-11T22:27:47.149Z,60.47
2018-12-11T22:30:16.160Z,59.37
2018-12-11T22:32:45.051Z,63.10
2018-12-11T22:35:14.089Z,64.13
2018-12-11T22:37:43.069Z,63.53
2018-12-11T22:40:12.203Z,63.07
2018-12-11T22:42:41.208Z,60.37
2018-12-11T22:45:10.110Z,59.27
2018-12-11T22:47:38.922Z,57.70
2018-12-11T22:50:07.940Z,54.27
2018-12-11T22:52:36.838Z,55.37
2018-12-11T22:55:05.980Z,53.47
2018-12-11T22:57:35.076Z,54.20
2018-12-11T23:00:04.327Z,52.67
2018-12-11T23:02:33.295Z,50.57
2018-12-11T23:05:02.452Z,50.07
2018-12-11T23:07:31.534Z,49.57
2018-12-11T23:10:02.381Z,47.73
2018-12-11T23:12:31.491Z,48.23
2018-12-11T23:15:00.415Z,47.67
2018-12-11T23:17:29.415Z,45.00
2018-12-11T23:19:58.277Z,47.53
2018-12-11T23:22:27.227Z,45.43
2018-12-11T23:24:56.272Z,44.30
2018-12-11T23:27:25.403Z,43.00
2018-12-11T23:29:54.370Z,42.33
2018-12-11T23:32:23.396Z,42.73
2018-12-11T23:34:53.470Z,42.10
2018-12-11T23:37:23.124Z,40.73
2018-12-11T23:39:52.140Z,38.50
2018-12-11T23:42:21.146Z,41.07
2018-12-11T23:44:50.113Z,38.60
2018-12-11T23:47:19.272Z,36.43
2018-12-11T23:49:48.240Z,37.73
2018-12-11T23:52:17.308Z,36.57
2018-12-11T23:54:46.329Z,36.37
2018-12-11T23:57:15.313Z,34.90
2018-12-11T23:59:44.253Z,34.73
